createdAt,value
2022-10-26T00:01:16.596Z,19.74
2022-10-26T00:03:46.544Z,19.74
2022-10-26T00:06:19.067Z,19.72
2022-10-26T00:08:46.646Z,19.68
2022-10-26T00:11:14.414Z,19.72
2022-10-26T00:13:42.328Z,19.71
2022-10-26T00:16:12.103Z,19.70
2022-10-26T00:18:39.232Z,19.67
2022-10-26T00:21:07.922Z,19.65
2022-10-26T00:23:35.271Z,19.63
2022-10-26T00:26:02.704Z,19.63
2022-10-26T00:28:30.056Z,19.62
2022-10-26T00:31:05.706Z,19.58
2022-10-26T00:33:38.855Z,19.54
2022-10-26T00:36:06.465Z,19.46
2022-10-26T00:38:33.718Z,19.43
2022-10-26T00:41:01.304Z,19.42
2022-10-26T00:43:28.324Z,19.37
2022-10-26T00:45:57.530Z,19.32
2022-10-26T00:48:38.478Z,19.30
2022-10-26T00:51:35.501Z,19.26
2022-10-26T00:54:05.841Z,19.23
2022-10-26T00:56:34.888Z,19.24
2022-10-26T00:59:09.943Z,19.20
2022-10-26T01:01:41.218Z,19.23
2022-10-26T01:04:08.451Z,19.31
2022-10-26T01:06:38.238Z,19.36
2022-10-26T01:09:06.362Z,19.40
2022-10-26T01:11:33.859Z,19.43
2022-10-26T01:14:04.570Z,19.45
2022-10-26T01:16:46.435Z,19.50
2022-10-26T01:19:31.688Z,19.53
2022-10-26T01:22:11.449Z,19.52
2022-10-26T01:24:44.442Z,19.52
2022-10-26T01:27:38.690Z,19.48
2022-10-26T01:30:17.882Z,19.50
2022-10-26T01:33:22.645Z,19.47
2022-10-26T01:36:13.624Z,19.39
2022-10-26T01:38:50.961Z,19.37
2022-10-26T01:41:29.993Z,19.36
2022-10-26T01:44:05.178Z,19.31
2022-10-26T01:46:38.527Z,19.27
2022-10-26T01:49:18.267Z,19.24
2022-10-26T01:51:48.254Z,19.17
2022-10-26T01:54:15.520Z,19.13
2022-10-26T01:56:48.457Z,19.12
2022-10-26T01:59:18.623Z,19.14
2022-10-26T02:01:49.006Z,19.18
2022-10-26T02:04:42.355Z,19.35
2022-10-26T02:07:24.510Z,19.48
2022-10-26T02:10:04.759Z,19.51
2022-10-26T02:12:56.646Z,19.49
2022-10-26T02:15:38.802Z,19.40
2022-10-26T02:18:09.093Z,19.29
2022-10-26T02:20:47.546Z,19.24
2022-10-26T02:23:15.705Z,19.22
2022-10-26T02:25:48.181Z,19.20
2022-10-26T02:28:20.269Z,19.15
2022-10-26T02:30:51.046Z,19.07
2022-10-26T02:33:20.366Z,19.02
2022-10-26T02:35:51.173Z,18.94
2022-10-26T02:38:21.630Z,18.94
2022-10-26T02:40:51.647Z,18.94
2022-10-26T02:43:22.437Z,18.91
2022-10-26T02:45:58.009Z,18.94
2022-10-26T02:48:25.465Z,18.98
2022-10-26T02:51:19.425Z,18.97
2022-10-26T02:53:52.165Z,18.94
2022-10-26T02:56:25.394Z,18.90
2022-10-26T02:59:02.538Z,18.86
2022-10-26T03:01:31.414Z,18.84
2022-10-26T03:03:59.965Z,18.79
2022-10-26T03:06:27.636Z,18.74
2022-10-26T03:08:55.017Z,18.71
2022-10-26T03:11:22.281Z,18.67
2022-10-26T03:13:49.448Z,18.64
2022-10-26T03:16:16.688Z,18.59
2022-10-26T03:18:43.738Z,18.56
2022-10-26T03:21:10.878Z,18.52
2022-10-26T03:23:37.967Z,18.50
2022-10-26T03:26:05.277Z,18.56
2022-10-26T03:28:32.354Z,18.54
2022-10-26T03:30:59.611Z,18.46
2022-10-26T03:33:27.243Z,18.46
2022-10-26T03:35:56.994Z,18.55
2022-10-26T03:38:24.461Z,18.60
2022-10-26T03:40:54.643Z,18.63
2022-10-26T03:43:21.813Z,18.61
2022-10-26T03:45:48.843Z,18.57
2022-10-26T03:48:16.111Z,18.57
2022-10-26T03:50:44.969Z,18.57
2022-10-26T03:53:12.262Z,18.60
2022-10-26T03:55:39.420Z,18.60
2022-10-26T03:58:07.248Z,18.58
2022-10-26T04:00:34.390Z,18.60
2022-10-26T04:03:01.499Z,18.62
2022-10-26T04:05:30.513Z,18.59
2022-10-26T04:08:00.196Z,18.54
2022-10-26T04:10:27.961Z,18.47
2022-10-26T04:12:57.501Z,18.49
2022-10-26T04:15:25.179Z,18.45
2022-10-26T04:17:59.989Z,18.48
2022-10-26T04:20:28.234Z,18.48
2022-10-26T04:23:05.681Z,18.45
2022-10-26T04:25:33.926Z,18.50
2022-10-26T04:28:02.899Z,18.55
2022-10-26T04:30:30.486Z,18.59
2022-10-26T04:32:57.550Z,18.60
2022-10-26T04:35:25.040Z,18.59
2022-10-26T04:37:52.378Z,18.57
2022-10-26T04:40:20.663Z,18.58
2022-10-26T04:42:48.584Z,18.59
2022-10-26T04:45:17.137Z,18.58
2022-10-26T04:47:44.236Z,18.58
2022-10-26T04:50:12.746Z,18.52
2022-10-26T04:52:40.600Z,18.48
2022-10-26T04:55:08.329Z,18.42
2022-10-26T04:57:36.454Z,18.38
2022-10-26T05:00:05.542Z,18.38
2022-10-26T05:02:32.722Z,18.38
2022-10-26T05:05:00.089Z,18.44
2022-10-26T05:07:27.223Z,18.45
2022-10-26T05:09:54.580Z,18.42
2022-10-26T05:12:21.675Z,18.43
2022-10-26T05:14:48.886Z,18.41
2022-10-26T05:17:16.350Z,18.39
2022-10-26T05:19:43.493Z,18.39
2022-10-26T05:22:10.903Z,18.40
2022-10-26T05:24:38.095Z,18.41
2022-10-26T05:27:05.138Z,18.47
2022-10-26T05:29:32.231Z,18.57
2022-10-26T05:31:59.434Z,18.67
2022-10-26T05:34:26.514Z,18.78
2022-10-26T05:36:54.806Z,18.98
2022-10-26T05:39:22.477Z,19.23
2022-10-26T05:41:49.827Z,19.50
2022-10-26T05:44:16.903Z,19.82
2022-10-26T05:46:44.040Z,20.18
2022-10-26T05:49:11.312Z,20.54
2022-10-26T05:51:39.810Z,20.93
2022-10-26T05:54:08.362Z,21.31
2022-10-26T05:56:42.134Z,21.79
2022-10-26T05:59:15.299Z,22.32
2022-10-26T06:02:07.554Z,22.48
2022-10-26T06:04:48.189Z,23.03
2022-10-26T06:07:21.102Z,23.57
2022-10-26T06:09:49.423Z,24.03
2022-10-26T06:12:19.475Z,24.32
2022-10-26T06:14:47.576Z,24.67
2022-10-26T06:17:35.819Z,25.08
2022-10-26T06:20:30.324Z,25.43
2022-10-26T06:23:24.890Z,25.69
2022-10-26T06:25:54.853Z,25.98
2022-10-26T06:28:47.267Z,26.17
2022-10-26T06:31:18.489Z,26.34
2022-10-26T06:33:48.452Z,26.33
2022-10-26T06:36:27.655Z,25.98
2022-10-26T06:39:01.972Z,25.57
2022-10-26T06:41:32.695Z,25.16
2022-10-26T06:44:00.380Z,24.96
2022-10-26T06:46:46.363Z,24.44
2022-10-26T06:49:28.157Z,24.17
2022-10-26T06:52:01.879Z,24.18
2022-10-26T06:54:43.520Z,24.60
2022-10-26T06:57:13.175Z,24.98
2022-10-26T06:59:51.826Z,25.32
2022-10-26T07:02:19.920Z,25.75
2022-10-26T07:04:47.599Z,25.89
2022-10-26T07:07:18.657Z,25.88
2022-10-26T07:09:46.850Z,25.67
2022-10-26T07:12:14.061Z,25.50
2022-10-26T07:14:41.301Z,25.23
2022-10-26T07:17:09.579Z,25.19
2022-10-26T07:19:36.734Z,24.90
2022-10-26T07:22:04.210Z,24.89
2022-10-26T07:24:31.556Z,24.93
2022-10-26T07:26:59.192Z,24.97
2022-10-26T07:29:27.353Z,24.85
2022-10-26T07:34:26.590Z,24.39
2022-10-26T07:40:10.164Z,24.16
2022-10-26T07:42:37.629Z,24.06
2022-10-26T07:45:05.323Z,24.04
2022-10-26T07:47:32.426Z,24.06
2022-10-26T07:49:59.592Z,24.22
2022-10-26T07:52:26.616Z,24.13
2022-10-26T07:54:53.764Z,24.14
2022-10-26T07:57:20.846Z,24.15
2022-10-26T07:59:47.933Z,24.24
2022-10-26T08:02:15.207Z,24.34
2022-10-26T08:04:42.216Z,24.41
2022-10-26T08:07:09.363Z,24.43
2022-10-26T08:09:36.346Z,24.49
2022-10-26T08:12:03.439Z,24.56
2022-10-26T08:14:30.604Z,24.40
2022-10-26T08:16:57.740Z,24.30
2022-10-26T08:19:24.910Z,24.47
2022-10-26T08:21:52.684Z,24.61
2022-10-26T08:24:19.723Z,24.50
2022-10-26T08:26:46.867Z,24.37
2022-10-26T08:29:13.847Z,24.59
2022-10-26T08:31:41.063Z,24.84
2022-10-26T08:34:08.494Z,24.87
2022-10-26T08:36:35.648Z,25.14
2022-10-26T08:39:02.765Z,25.35
2022-10-26T08:41:43.426Z,25.44
2022-10-26T08:44:38.193Z,25.36
2022-10-26T08:47:05.407Z,25.25
2022-10-26T08:49:58.815Z,25.11
2022-10-26T08:53:02.388Z,25.04
2022-10-26T08:55:35.416Z,24.87
2022-10-26T08:58:08.748Z,25.17
2022-10-26T09:00:36.080Z,25.12
2022-10-26T09:03:14.342Z,25.01
2022-10-26T09:05:53.436Z,25.07
2022-10-26T09:08:36.947Z,25.15
2022-10-26T09:11:10.902Z,25.11
2022-10-26T09:13:54.145Z,25.09
2022-10-26T09:16:28.134Z,25.13
2022-10-26T09:19:26.561Z,25.08
2022-10-26T09:22:07.185Z,25.04
2022-10-26T09:24:40.001Z,25.00
2022-10-26T09:27:22.729Z,25.05
2022-10-26T09:29:52.159Z,25.24
2022-10-26T09:32:27.051Z,25.34
2022-10-26T09:34:59.640Z,25.38
2022-10-26T09:37:31.431Z,25.54
2022-10-26T09:40:08.742Z,25.60
2022-10-26T09:43:03.602Z,25.50
2022-10-26T09:45:36.211Z,25.63
2022-10-26T09:48:38.486Z,25.54
2022-10-26T09:51:05.763Z,25.64
2022-10-26T09:53:33.373Z,25.61
2022-10-26T09:56:10.411Z,25.59
2022-10-26T09:59:02.456Z,25.60
2022-10-26T10:01:30.437Z,25.69
2022-10-26T10:04:22.870Z,25.79
2022-10-26T10:06:52.606Z,25.88
2022-10-26T10:09:24.883Z,25.89
2022-10-26T10:12:03.340Z,25.70
2022-10-26T10:14:39.911Z,25.55
2022-10-26T10:19:49.466Z,25.49
2022-10-26T10:22:16.458Z,25.55
2022-10-26T10:24:55.096Z,25.54
2022-10-26T10:27:23.561Z,25.63
2022-10-26T10:29:53.183Z,25.79
2022-10-26T10:32:23.186Z,26.11
2022-10-26T10:34:58.947Z,26.10
2022-10-26T10:37:47.486Z,25.94
2022-10-26T10:40:26.896Z,26.06
2022-10-26T10:43:05.957Z,26.11
2022-10-26T10:45:35.203Z,25.61
2022-10-26T10:48:13.206Z,25.31
2022-10-26T10:50:53.376Z,25.23
2022-10-26T10:53:32.215Z,25.33
2022-10-26T10:56:11.413Z,25.38
2022-10-26T10:59:06.251Z,25.39
2022-10-26T11:01:40.003Z,25.35
2022-10-26T11:04:16.056Z,25.33
2022-10-26T11:06:45.464Z,25.43
2022-10-26T11:09:17.267Z,25.60
2022-10-26T11:11:54.382Z,25.54
2022-10-26T11:14:30.925Z,25.48
2022-10-26T11:17:20.302Z,25.51
2022-10-26T11:20:05.837Z,25.49
2022-10-26T11:22:47.008Z,25.55
2022-10-26T11:25:35.660Z,25.63
2022-10-26T11:28:26.045Z,25.61
2022-10-26T11:31:00.824Z,25.62
2022-10-26T11:33:48.799Z,25.63
2022-10-26T11:36:21.974Z,25.60
2022-10-26T11:39:06.543Z,25.60
2022-10-26T11:41:45.842Z,25.66
2022-10-26T11:44:23.067Z,25.83
2022-10-26T11:46:55.638Z,26.06
2022-10-26T11:49:38.494Z,26.08
2022-10-26T11:52:22.328Z,26.02
2022-10-26T11:55:04.972Z,25.81
2022-10-26T11:57:37.056Z,25.72
2022-10-26T12:00:11.458Z,25.62
2022-10-26T12:05:16.031Z,26.00
2022-10-26T12:07:56.280Z,26.32
2022-10-26T12:10:33.474Z,26.60
2022-10-26T12:13:22.935Z,26.74
2022-10-26T12:16:11.906Z,26.74
2022-10-26T12:19:00.523Z,26.77
2022-10-26T12:21:32.472Z,26.92
2022-10-26T12:24:22.043Z,27.05
2022-10-26T12:26:59.839Z,27.25
2022-10-26T12:29:48.086Z,27.42
2022-10-26T12:32:43.733Z,27.31
2022-10-26T12:35:40.426Z,27.32
2022-10-26T12:38:29.045Z,27.35
2022-10-26T12:41:04.574Z,27.38
2022-10-26T12:43:31.760Z,27.50
2022-10-26T12:46:14.296Z,27.52
2022-10-26T12:48:46.927Z,27.72
2022-10-26T12:51:22.971Z,27.82
2022-10-26T12:54:05.024Z,28.02
2022-10-26T12:56:59.540Z,28.05
2022-10-26T12:59:43.406Z,28.17
2022-10-26T13:02:31.813Z,28.35
2022-10-26T13:05:08.276Z,28.46
2022-10-26T13:07:38.116Z,28.55
2022-10-26T13:10:26.588Z,28.44
2022-10-26T13:12:58.890Z,28.50
2022-10-26T13:15:54.663Z,28.71
2022-10-26T13:18:22.751Z,28.72
2022-10-26T13:21:11.783Z,28.60
2022-10-26T13:23:41.529Z,28.60
2022-10-26T13:26:16.278Z,28.43
2022-10-26T13:28:54.237Z,28.31
2022-10-26T13:31:33.208Z,28.33
2022-10-26T13:34:31.880Z,28.36
2022-10-26T13:37:17.557Z,28.40
2022-10-26T13:39:47.551Z,28.50
2022-10-26T13:42:24.347Z,28.43
2022-10-26T13:45:10.346Z,28.37
2022-10-26T13:47:52.797Z,28.33
2022-10-26T13:50:27.558Z,28.27
2022-10-26T13:53:17.677Z,28.11
2022-10-26T13:55:59.331Z,27.68
2022-10-26T13:58:33.418Z,27.64
2022-10-26T14:01:15.680Z,27.72
2022-10-26T14:03:43.659Z,27.70
2022-10-26T14:06:13.633Z,27.55
2022-10-26T14:08:43.018Z,27.64
2022-10-26T14:11:23.415Z,27.59
2022-10-26T14:13:51.686Z,27.55
2022-10-26T14:16:21.072Z,27.36
2022-10-26T14:18:49.790Z,27.12
2022-10-26T14:21:21.106Z,27.09
2022-10-26T14:24:07.755Z,27.13
2022-10-26T14:26:42.340Z,27.20
2022-10-26T14:29:18.560Z,27.30
2022-10-26T14:31:45.796Z,27.17
2022-10-26T14:34:13.378Z,27.14
2022-10-26T14:36:42.917Z,27.04
2022-10-26T14:39:27.266Z,27.04
2022-10-26T14:41:55.619Z,26.99
2022-10-26T14:44:25.493Z,26.96
2022-10-26T14:46:52.958Z,26.93
2022-10-26T14:49:24.042Z,26.87
2022-10-26T14:51:57.977Z,26.84
2022-10-26T14:54:28.205Z,26.88
2022-10-26T14:56:56.407Z,26.90
2022-10-26T14:59:29.908Z,26.80
2022-10-26T15:02:19.855Z,26.69
2022-10-26T15:05:17.118Z,26.59
2022-10-26T15:07:45.855Z,26.47
2022-10-26T15:10:34.884Z,26.41
2022-10-26T15:13:20.568Z,26.38
2022-10-26T15:15:49.951Z,26.34
2022-10-26T15:18:23.530Z,26.29
2022-10-26T15:20:52.178Z,26.24
2022-10-26T15:23:21.517Z,26.21
2022-10-26T15:26:04.484Z,26.14
2022-10-26T15:28:49.842Z,26.12
2022-10-26T15:31:17.009Z,26.05
2022-10-26T15:33:53.239Z,25.95
2022-10-26T15:36:26.163Z,25.87
2022-10-26T15:38:54.001Z,25.78
2022-10-26T15:41:31.278Z,25.68
2022-10-26T15:44:06.334Z,25.68
2022-10-26T15:46:36.592Z,25.62
2022-10-26T15:49:06.680Z,25.55
2022-10-26T15:51:34.510Z,25.46
2022-10-26T15:54:05.664Z,25.41
2022-10-26T15:56:34.847Z,25.39
2022-10-26T15:59:02.496Z,25.38
2022-10-26T16:01:30.619Z,25.38
2022-10-26T16:03:57.917Z,25.27
2022-10-26T16:06:28.135Z,25.19
2022-10-26T16:09:01.822Z,25.16
2022-10-26T16:11:29.974Z,25.10
2022-10-26T16:13:59.691Z,25.03
2022-10-26T16:16:31.635Z,24.98
2022-10-26T16:19:18.318Z,24.97
2022-10-26T16:21:46.228Z,24.90
2022-10-26T16:24:13.425Z,24.82
2022-10-26T16:26:40.536Z,24.76
2022-10-26T16:29:07.714Z,24.76
2022-10-26T16:31:34.850Z,24.68
2022-10-26T16:34:04.206Z,24.63
2022-10-26T16:36:34.834Z,24.53
2022-10-26T16:41:34.903Z,24.38
2022-10-26T16:44:02.012Z,24.31
2022-10-26T16:46:29.250Z,24.28
2022-10-26T16:48:56.489Z,24.31
2022-10-26T16:51:26.872Z,24.28
2022-10-26T16:53:56.335Z,24.24
2022-10-26T16:56:25.735Z,24.21
2022-10-26T16:58:53.019Z,24.20
2022-10-26T17:01:22.552Z,24.18
2022-10-26T17:03:51.651Z,24.09
2022-10-26T17:06:19.588Z,24.04
2022-10-26T17:08:47.345Z,24.01
2022-10-26T17:11:18.074Z,24.00
2022-10-26T17:13:46.292Z,23.98
2022-10-26T17:16:17.486Z,23.96
2022-10-26T17:18:45.850Z,23.98
2022-10-26T17:21:14.650Z,23.92
2022-10-26T17:23:41.935Z,23.79
2022-10-26T17:26:11.703Z,23.67
2022-10-26T17:28:39.221Z,23.54
2022-10-26T17:31:08.561Z,23.42
2022-10-26T17:33:37.363Z,23.38
2022-10-26T17:36:06.232Z,23.40
2022-10-26T17:38:42.078Z,23.44
2022-10-26T17:41:15.291Z,23.52
2022-10-26T17:43:44.031Z,23.54
2022-10-26T17:46:13.646Z,23.55
2022-10-26T17:48:40.969Z,23.58
2022-10-26T17:51:12.813Z,23.62
2022-10-26T17:53:40.374Z,23.59
2022-10-26T17:56:13.307Z,23.54
2022-10-26T17:58:40.245Z,23.54
2022-10-26T18:01:12.881Z,23.53
2022-10-26T18:03:41.762Z,23.49
2022-10-26T18:06:09.116Z,23.42
2022-10-26T18:08:37.951Z,23.33
2022-10-26T18:11:06.993Z,23.17
2022-10-26T18:13:34.582Z,23.08
2022-10-26T18:16:31.387Z,23.08
2022-10-26T18:19:04.603Z,23.12
2022-10-26T18:21:34.200Z,23.14
2022-10-26T18:24:01.449Z,23.20
2022-10-26T18:26:32.146Z,23.18
2022-10-26T18:29:01.289Z,23.18
2022-10-26T18:31:30.028Z,23.10
2022-10-26T18:34:02.329Z,22.99
2022-10-26T18:36:30.333Z,22.87
2022-10-26T18:38:57.715Z,22.81
2022-10-26T18:41:26.382Z,22.75
2022-10-26T18:43:59.041Z,22.70
2022-10-26T18:46:31.432Z,22.61
2022-10-26T18:49:01.079Z,22.58
2022-10-26T18:51:34.091Z,22.52
2022-10-26T18:54:01.637Z,22.47
2022-10-26T18:56:28.944Z,22.44
2022-10-26T18:58:59.547Z,22.39
2022-10-26T19:01:29.412Z,22.38
2022-10-26T19:03:59.718Z,22.45
2022-10-26T19:06:29.866Z,22.45
2022-10-26T19:08:57.934Z,22.49
2022-10-26T19:11:27.716Z,22.47
2022-10-26T19:13:55.322Z,22.39
2022-10-26T19:16:45.522Z,22.23
2022-10-26T19:19:12.462Z,22.09
2022-10-26T19:21:39.631Z,22.00
2022-10-26T19:24:12.610Z,21.91
2022-10-26T19:26:43.129Z,21.82
2022-10-26T19:29:16.580Z,21.74
2022-10-26T19:31:45.923Z,21.70
2022-10-26T19:34:13.961Z,21.67
2022-10-26T19:36:45.120Z,21.63
2022-10-26T19:39:14.563Z,21.60
2022-10-26T19:41:41.951Z,21.60
2022-10-26T19:44:11.200Z,21.58
2022-10-26T19:46:39.704Z,21.57
2022-10-26T19:49:07.464Z,21.60
2022-10-26T19:51:34.823Z,21.66
2022-10-26T19:54:06.204Z,21.71
2022-10-26T19:56:35.434Z,21.72
2022-10-26T19:59:03.361Z,21.70
2022-10-26T20:01:30.591Z,21.68
2022-10-26T20:03:58.116Z,21.64
2022-10-26T20:06:25.166Z,21.58
2022-10-26T20:08:52.896Z,21.54
2022-10-26T20:11:20.643Z,21.51
2022-10-26T20:13:48.767Z,21.45
2022-10-26T20:16:17.863Z,21.40
2022-10-26T20:18:49.037Z,21.40
2022-10-26T20:21:17.773Z,21.45
2022-10-26T20:23:45.348Z,21.44
2022-10-26T20:26:20.151Z,21.40
2022-10-26T20:28:51.269Z,21.34
2022-10-26T20:31:19.657Z,21.40
2022-10-26T20:33:50.755Z,21.46
2022-10-26T20:36:17.983Z,21.43
2022-10-26T20:38:45.294Z,21.33
2022-10-26T20:41:13.254Z,21.24
2022-10-26T20:43:41.239Z,21.24
2022-10-26T20:46:37.910Z,21.22
2022-10-26T20:49:05.361Z,21.18
2022-10-26T20:52:19.316Z,21.17
2022-10-26T20:54:52.971Z,21.21
2022-10-26T20:57:28.494Z,21.26
2022-10-26T21:00:04.261Z,21.26
2022-10-26T21:02:31.975Z,21.23
2022-10-26T21:04:59.061Z,21.27
2022-10-26T21:07:26.210Z,21.34
2022-10-26T21:09:53.400Z,21.28
2022-10-26T21:12:20.589Z,21.23
2022-10-26T21:14:47.738Z,21.19
2022-10-26T21:17:14.815Z,21.17
2022-10-26T21:19:42.131Z,21.18
2022-10-26T21:22:09.411Z,21.16
2022-10-26T21:27:08.547Z,21.19
2022-10-26T21:29:35.699Z,21.18
2022-10-26T21:32:02.946Z,21.06
2022-10-26T21:34:29.983Z,20.94
2022-10-26T21:36:58.374Z,20.87
2022-10-26T21:39:25.427Z,20.87
2022-10-26T21:41:52.974Z,20.84
2022-10-26T21:44:38.916Z,20.83
2022-10-26T21:47:07.177Z,20.89
2022-10-26T21:49:34.211Z,20.94
2022-10-26T21:52:01.435Z,20.94
2022-10-26T21:54:28.682Z,20.93
2022-10-26T21:56:55.747Z,20.90
2022-10-26T21:59:22.927Z,20.86
2022-10-26T22:01:50.154Z,20.83
2022-10-26T22:04:17.379Z,20.80
2022-10-26T22:06:44.502Z,20.76
2022-10-26T22:09:11.758Z,20.74
2022-10-26T22:11:38.869Z,20.71
2022-10-26T22:14:06.196Z,20.69
2022-10-26T22:16:33.728Z,20.65
2022-10-26T22:19:06.671Z,20.63
2022-10-26T22:21:39.549Z,20.62
2022-10-26T22:24:07.641Z,20.59
2022-10-26T22:26:36.753Z,20.56
2022-10-26T22:29:05.032Z,20.54
2022-10-26T22:31:34.858Z,20.53
2022-10-26T22:34:07.716Z,20.51
2022-10-26T22:36:35.877Z,20.48
2022-10-26T22:39:03.498Z,20.43
2022-10-26T22:41:31.281Z,20.41
2022-10-26T22:43:58.414Z,20.37
2022-10-26T22:46:28.223Z,20.34
2022-10-26T22:48:57.209Z,20.34
2022-10-26T22:51:25.836Z,20.34
2022-10-26T22:53:54.768Z,20.36
2022-10-26T22:56:23.621Z,20.34
2022-10-26T22:58:54.160Z,20.30
2022-10-26T23:01:24.197Z,20.29
2022-10-26T23:03:53.030Z,20.28
2022-10-26T23:06:20.634Z,20.28
2022-10-26T23:08:47.948Z,20.25
2022-10-26T23:11:18.115Z,20.31
2022-10-26T23:13:45.370Z,20.36
2022-10-26T23:16:20.678Z,20.39
2022-10-26T23:18:48.519Z,20.36
2022-10-26T23:21:17.325Z,20.38
2022-10-26T23:23:44.870Z,20.36
2022-10-26T23:26:14.953Z,20.32
2022-10-26T23:28:43.726Z,20.29
2022-10-26T23:31:23.436Z,20.28
2022-10-26T23:33:51.624Z,20.31
2022-10-26T23:36:19.159Z,20.36
2022-10-26T23:38:46.765Z,20.32
2022-10-26T23:41:14.287Z,20.27
2022-10-26T23:43:41.468Z,20.22
2022-10-26T23:46:08.861Z,20.21
2022-10-26T23:48:36.015Z,20.19
2022-10-26T23:51:03.027Z,20.15
2022-10-26T23:53:30.164Z,20.10
2022-10-26T23:55:57.102Z,20.03
2022-10-26T23:58:24.263Z,19.96
